createdAt,value
2024-02-20T00:00:55.660Z,89.89
2024-02-20T00:01:55.640Z,89.79
2024-02-20T00:02:55.598Z,89.79
2024-02-20T00:03:55.613Z,89.38
2024-02-20T00:04:55.630Z,89.17
2024-02-20T00:05:55.556Z,89.28
2024-02-20T00:06:55.684Z,89.28
2024-02-20T00:07:55.529Z,89.58
2024-02-20T00:08:55.510Z,89.38
2024-02-20T00:09:55.553Z,89.48
2024-02-20T00:10:55.520Z,89.58
2024-02-20T00:11:55.452Z,89.28
2024-02-20T00:12:55.506Z,89.07
2024-02-20T00:13:55.453Z,89.07
2024-02-20T00:14:55.461Z,89.17
2024-02-20T00:15:55.440Z,89.38
2024-02-20T00:16:55.432Z,89.28
2024-02-20T00:17:55.510Z,89.38
2024-02-20T00:18:55.514Z,89.48
2024-02-20T00:19:55.433Z,89.58
2024-02-20T00:20:55.394Z,89.83
2024-02-20T00:21:55.408Z,89.73
2024-02-20T00:22:55.348Z,90.03
2024-02-20T00:23:55.346Z,90.03
2024-02-20T00:24:55.422Z,90.03
2024-02-20T00:25:55.295Z,90.24
2024-02-20T00:26:55.312Z,90.34
2024-02-20T00:27:55.318Z,90.24
2024-02-20T00:28:55.279Z,90.45
2024-02-20T00:29:55.259Z,90.45
2024-02-20T00:30:55.329Z,90.14
2024-02-20T00:31:55.233Z,89.83
2024-02-20T00:32:55.283Z,89.94
2024-02-20T00:33:55.273Z,89.62
2024-02-20T00:34:55.344Z,89.73
2024-02-20T00:35:55.197Z,89.31
2024-02-20T00:36:55.246Z,89.42
2024-02-20T00:37:55.170Z,89.31
2024-02-20T00:38:55.195Z,89.01
2024-02-20T00:39:55.190Z,89.11
2024-02-20T00:40:55.178Z,89.01
2024-02-20T00:41:55.122Z,88.90
2024-02-20T00:42:55.201Z,89.11
2024-02-20T00:43:55.128Z,88.90
2024-02-20T00:44:55.133Z,88.90
2024-02-20T00:45:55.119Z,88.80
2024-02-20T00:46:55.098Z,89.11
2024-02-20T00:47:55.123Z,89.11
2024-02-20T00:48:55.190Z,89.42
2024-02-20T00:49:55.107Z,89.22
2024-02-20T00:50:55.037Z,89.25
2024-02-20T00:51:55.039Z,89.25
2024-02-20T00:52:55.021Z,89.46
2024-02-20T00:53:55.025Z,89.56
2024-02-20T00:54:55.031Z,89.67
2024-02-20T00:55:54.987Z,89.77
2024-02-20T00:56:54.995Z,89.97
2024-02-20T00:57:54.965Z,89.97
2024-02-20T00:58:54.957Z,90.28
2024-02-20T00:59:54.927Z,90.39
2024-02-20T01:00:54.997Z,90.28
2024-02-20T01:01:54.938Z,90.39
2024-02-20T01:02:54.932Z,89.97
2024-02-20T01:03:54.974Z,89.97
2024-02-20T01:04:55.020Z,89.77
2024-02-20T01:05:54.886Z,89.87
2024-02-20T01:06:54.911Z,89.87
2024-02-20T01:07:54.847Z,89.87
2024-02-20T01:08:54.890Z,89.97
2024-02-20T01:09:54.924Z,89.97
2024-02-20T01:10:54.820Z,90.08
2024-02-20T01:11:54.821Z,90.18
2024-02-20T01:12:54.857Z,90.12
2024-02-20T01:13:54.775Z,90.18
2024-02-20T01:14:54.802Z,90.28
2024-02-20T01:15:54.778Z,90.28
2024-02-20T01:16:54.757Z,90.18
2024-02-20T01:17:54.759Z,90.49
2024-02-20T01:18:54.818Z,90.28
2024-02-20T01:19:54.737Z,90.28
2024-02-20T01:20:54.734Z,90.08
2024-02-20T01:21:54.729Z,90.08
2024-02-20T01:22:54.687Z,90.08
2024-02-20T01:23:54.662Z,89.97
2024-02-20T01:24:54.722Z,90.08
2024-02-20T01:25:54.656Z,90.08
2024-02-20T01:26:54.668Z,90.08
2024-02-20T01:27:54.668Z,89.97
2024-02-20T01:28:54.620Z,90.18
2024-02-20T01:29:54.592Z,89.97
2024-02-20T01:30:54.632Z,89.97
2024-02-20T01:31:54.649Z,89.77
2024-02-20T01:32:54.633Z,89.77
2024-02-20T01:33:54.617Z,89.56
2024-02-20T01:34:54.616Z,89.67
2024-02-20T01:35:54.539Z,89.77
2024-02-20T01:36:54.566Z,89.67
2024-02-20T01:37:54.519Z,89.77
2024-02-20T01:38:54.513Z,89.81
2024-02-20T01:39:54.533Z,89.91
2024-02-20T01:40:54.496Z,89.71
2024-02-20T01:41:54.476Z,89.71
2024-02-20T01:42:54.534Z,89.81
2024-02-20T01:43:54.435Z,89.81
2024-02-20T01:44:54.456Z,89.91
2024-02-20T01:45:54.416Z,89.91
2024-02-20T01:46:54.436Z,89.81
2024-02-20T01:47:54.465Z,89.81
2024-02-20T01:48:54.473Z,90.01
2024-02-20T01:49:54.508Z,89.91
2024-02-20T01:50:54.417Z,90.12
2024-02-20T01:51:54.354Z,90.12
2024-02-20T01:52:54.370Z,90.22
2024-02-20T01:53:54.328Z,90.22
2024-02-20T01:54:54.357Z,90.12
2024-02-20T01:55:54.302Z,90.33
2024-02-20T01:56:54.320Z,90.33
2024-02-20T01:57:54.316Z,90.33
2024-02-20T01:58:54.293Z,90.22
2024-02-20T01:59:54.255Z,90.33
2024-02-20T02:00:54.375Z,90.43
2024-02-20T02:01:54.261Z,90.73
2024-02-20T02:02:54.303Z,90.64
2024-02-20T02:03:54.493Z,90.12
2024-02-20T02:04:54.356Z,89.71
2024-02-20T02:05:54.335Z,89.71
2024-02-20T02:06:54.296Z,89.29
2024-02-20T02:07:54.284Z,89.29
2024-02-20T02:08:54.170Z,89.81
2024-02-20T02:09:54.209Z,89.29
2024-02-20T02:10:54.251Z,89.40
2024-02-20T02:11:54.137Z,89.61
2024-02-20T02:12:54.168Z,89.61
2024-02-20T02:13:54.103Z,88.78
2024-02-20T02:14:54.102Z,88.99
2024-02-20T02:15:54.155Z,89.29
2024-02-20T02:16:54.094Z,89.71
2024-02-20T02:17:54.149Z,90.12
2024-02-20T02:18:54.127Z,90.01
2024-02-20T02:19:54.074Z,90.33
2024-02-20T02:20:54.052Z,90.73
2024-02-20T02:21:54.049Z,91.05
2024-02-20T02:22:54.016Z,91.15
2024-02-20T02:23:53.986Z,91.15
2024-02-20T02:24:54.038Z,91.19
2024-02-20T02:25:53.996Z,90.88
2024-02-20T02:26:53.967Z,90.26
2024-02-20T02:27:53.988Z,90.37
2024-02-20T02:28:53.952Z,90.26
2024-02-20T02:29:53.929Z,90.06
2024-02-20T02:30:53.990Z,90.06
2024-02-20T02:31:53.903Z,90.26
2024-02-20T02:32:53.930Z,90.26
2024-02-20T02:33:53.999Z,90.06
2024-02-20T02:34:54.003Z,89.75
2024-02-20T02:35:53.879Z,89.54
2024-02-20T02:36:53.909Z,89.85
2024-02-20T02:37:53.863Z,89.44
2024-02-20T02:38:53.858Z,89.75
2024-02-20T02:39:53.878Z,89.34
2024-02-20T02:40:53.823Z,89.44
2024-02-20T02:41:53.788Z,89.44
2024-02-20T02:42:53.822Z,89.23
2024-02-20T02:43:53.778Z,88.92
2024-02-20T02:44:53.779Z,89.03
2024-02-20T02:45:53.824Z,88.92
2024-02-20T02:46:53.784Z,89.03
2024-02-20T02:47:53.759Z,88.92
2024-02-20T02:48:53.770Z,89.03
2024-02-20T02:49:53.786Z,89.03
2024-02-20T02:50:53.702Z,88.82
2024-02-20T02:51:53.715Z,88.62
2024-02-20T02:52:53.661Z,88.62
2024-02-20T02:53:53.671Z,88.72
2024-02-20T02:54:53.688Z,88.31
2024-02-20T02:55:53.658Z,87.96
2024-02-20T02:56:53.618Z,87.85
2024-02-20T02:57:53.647Z,87.85
2024-02-20T02:58:53.620Z,87.75
2024-02-20T02:59:53.621Z,88.06
2024-02-20T03:00:53.695Z,87.96
2024-02-20T03:01:53.836Z,87.96
2024-02-20T03:02:53.573Z,88.06
2024-02-20T03:03:53.601Z,88.06
2024-02-20T03:04:53.545Z,87.65
2024-02-20T03:05:53.577Z,87.65
2024-02-20T03:06:53.561Z,87.65
2024-02-20T03:07:53.525Z,87.54
2024-02-20T03:08:53.517Z,87.65
2024-02-20T03:09:53.522Z,87.65
2024-02-20T03:10:53.520Z,87.75
2024-02-20T03:11:53.508Z,88.17
2024-02-20T03:12:53.503Z,87.96
2024-02-20T03:13:53.466Z,86.72
2024-02-20T03:14:53.437Z,86.61
2024-02-20T03:15:53.481Z,86.82
2024-02-20T03:16:53.405Z,87.24
2024-02-20T03:17:53.501Z,87.24
2024-02-20T03:18:53.539Z,86.61
2024-02-20T03:19:53.527Z,86.72
2024-02-20T03:20:53.359Z,86.82
2024-02-20T03:21:53.520Z,87.17
2024-02-20T03:22:53.383Z,87.07
2024-02-20T03:23:53.364Z,87.17
2024-02-20T03:24:53.387Z,87.27
2024-02-20T03:25:53.326Z,87.59
2024-02-20T03:26:53.292Z,87.69
2024-02-20T03:27:53.343Z,87.79
2024-02-20T03:28:53.288Z,88.10
2024-02-20T03:29:53.291Z,88.20
2024-02-20T03:30:53.271Z,88.20
2024-02-20T03:31:53.260Z,88.31
2024-02-20T03:32:53.314Z,88.41
2024-02-20T03:33:53.448Z,88.31
2024-02-20T03:34:53.251Z,88.24
2024-02-20T03:35:53.269Z,88.24
2024-02-20T03:36:53.317Z,87.93
2024-02-20T03:37:53.218Z,88.14
2024-02-20T03:38:53.163Z,88.14
2024-02-20T03:39:53.215Z,88.24
2024-02-20T03:40:53.168Z,88.35
2024-02-20T03:41:53.205Z,88.35
2024-02-20T03:42:53.192Z,88.24
2024-02-20T03:43:53.151Z,88.24
2024-02-20T03:44:53.110Z,88.45
2024-02-20T03:45:53.140Z,88.24
2024-02-20T03:46:53.096Z,88.24
2024-02-20T03:47:53.266Z,88.35
2024-02-20T03:48:53.253Z,88.04
2024-02-20T03:49:53.372Z,87.93
2024-02-20T03:50:53.045Z,88.04
2024-02-20T03:51:53.197Z,87.83
2024-02-20T03:52:53.041Z,87.79
2024-02-20T03:53:53.126Z,87.79
2024-02-20T03:54:53.031Z,87.59
2024-02-20T03:55:53.042Z,87.79
2024-02-20T03:56:52.980Z,87.69
2024-02-20T03:57:53.075Z,87.38
2024-02-20T03:58:52.975Z,87.48
2024-02-20T03:59:52.978Z,87.17
2024-02-20T04:00:53.056Z,86.97
2024-02-20T04:01:52.986Z,86.87
2024-02-20T04:02:52.914Z,86.97
2024-02-20T04:03:52.975Z,86.97
2024-02-20T04:04:53.063Z,86.97
2024-02-20T04:05:52.924Z,87.48
2024-02-20T04:06:52.983Z,87.17
2024-02-20T04:07:52.975Z,87.27
2024-02-20T04:08:52.854Z,87.48
2024-02-20T04:09:52.956Z,86.97
2024-02-20T04:10:53.095Z,87.07
2024-02-20T04:11:52.921Z,87.27
2024-02-20T04:12:52.938Z,86.87
2024-02-20T04:13:52.820Z,86.76
2024-02-20T04:14:52.781Z,86.97
2024-02-20T04:15:52.921Z,86.66
2024-02-20T04:16:52.768Z,86.76
2024-02-20T04:17:52.809Z,86.45
2024-02-20T04:18:52.871Z,86.66
2024-02-20T04:19:52.814Z,86.66
2024-02-20T04:20:52.737Z,86.87
2024-02-20T04:21:52.745Z,86.87
2024-02-20T04:22:52.702Z,86.97
2024-02-20T04:23:52.711Z,86.66
2024-02-20T04:24:52.678Z,86.76
2024-02-20T04:25:52.693Z,86.76
2024-02-20T04:26:52.659Z,86.55
2024-02-20T04:27:52.701Z,85.83
2024-02-20T04:28:52.643Z,85.83
2024-02-20T04:29:52.631Z,86.04
2024-02-20T04:30:52.630Z,86.45
2024-02-20T04:31:52.622Z,86.04
2024-02-20T04:32:52.626Z,86.04
2024-02-20T04:33:52.737Z,86.04
2024-02-20T04:34:52.721Z,85.73
2024-02-20T04:35:52.573Z,85.01
2024-02-20T04:36:52.595Z,85.11
2024-02-20T04:37:52.546Z,85.11
2024-02-20T04:38:52.512Z,84.80
2024-02-20T04:39:52.608Z,84.80
2024-02-20T04:40:52.499Z,85.01
2024-02-20T04:41:52.508Z,85.01
2024-02-20T04:42:52.561Z,84.91
2024-02-20T04:43:52.482Z,84.80
2024-02-20T04:44:52.480Z,84.80
2024-02-20T04:45:52.506Z,84.74
2024-02-20T04:46:52.429Z,84.84
2024-02-20T04:47:52.470Z,85.05
2024-02-20T04:48:52.560Z,85.15
2024-02-20T04:49:52.532Z,85.25
2024-02-20T04:50:52.415Z,84.94
2024-02-20T04:51:52.484Z,85.15
2024-02-20T04:52:52.368Z,85.36
2024-02-20T04:53:52.458Z,85.36
2024-02-20T04:54:52.399Z,85.36
2024-02-20T04:55:52.380Z,85.39
2024-02-20T04:56:52.336Z,85.81
2024-02-20T04:57:52.364Z,86.02
2024-02-20T04:58:52.307Z,86.12
2024-02-20T04:59:52.321Z,86.22
2024-02-20T05:00:52.487Z,86.32
2024-02-20T05:01:52.528Z,86.43
2024-02-20T05:02:52.261Z,86.53
2024-02-20T05:03:52.333Z,86.78
2024-02-20T05:04:56.425Z,86.78
2024-02-20T05:05:52.265Z,86.88
2024-02-20T05:06:52.302Z,86.78
2024-02-20T05:07:52.349Z,86.88
2024-02-20T05:08:52.207Z,86.98
2024-02-20T05:09:52.329Z,87.08
2024-02-20T05:10:52.289Z,87.08
2024-02-20T05:11:52.189Z,87.50
2024-02-20T05:12:52.212Z,87.19
2024-02-20T05:13:52.162Z,87.44
2024-02-20T05:14:52.151Z,87.34
2024-02-20T05:15:52.174Z,87.34
2024-02-20T05:16:52.240Z,87.44
2024-02-20T05:17:52.187Z,87.34
2024-02-20T05:18:52.184Z,87.54
2024-02-20T05:19:52.144Z,87.54
2024-02-20T05:20:52.076Z,87.85
2024-02-20T05:21:52.141Z,87.85
2024-02-20T05:22:52.235Z,87.95
2024-02-20T05:23:52.063Z,88.06
2024-02-20T05:24:52.117Z,87.85
2024-02-20T05:25:52.041Z,87.74
2024-02-20T05:26:52.012Z,87.85
2024-02-20T05:27:52.053Z,87.85
2024-02-20T05:28:52.004Z,87.85
2024-02-20T05:29:51.996Z,87.95
2024-02-20T05:30:52.056Z,88.06
2024-02-20T05:31:51.983Z,88.06
2024-02-20T05:32:51.967Z,87.85
2024-02-20T05:33:52.029Z,87.85
2024-02-20T05:34:51.986Z,87.85
2024-02-20T05:35:51.953Z,87.85
2024-02-20T05:36:51.965Z,87.74
2024-02-20T05:37:51.930Z,87.74
2024-02-20T05:38:51.905Z,87.85
2024-02-20T05:39:51.908Z,87.85
2024-02-20T05:40:51.935Z,88.20
2024-02-20T05:41:51.887Z,88.31
2024-02-20T05:42:51.836Z,88.31
2024-02-20T05:43:51.848Z,88.51
2024-02-20T05:44:51.840Z,88.51
2024-02-20T05:45:51.852Z,88.51
2024-02-20T05:46:51.818Z,88.71
2024-02-20T05:47:51.944Z,88.61
2024-02-20T05:48:51.887Z,89.23
2024-02-20T05:49:51.942Z,88.92
2024-02-20T05:50:51.875Z,88.82
2024-02-20T05:51:51.774Z,89.34
2024-02-20T05:52:52.745Z,89.34
2024-02-20T05:53:51.743Z,89.34
2024-02-20T05:54:51.727Z,89.59
2024-02-20T05:55:51.737Z,89.79
2024-02-20T05:56:51.739Z,89.79
2024-02-20T05:57:51.739Z,89.79
2024-02-20T05:58:51.682Z,90.10
2024-02-20T05:59:51.689Z,90.20
2024-02-20T06:00:51.714Z,90.20
2024-02-20T06:01:51.734Z,90.41
2024-02-20T06:02:51.640Z,90.62
2024-02-20T06:03:51.663Z,90.72
2024-02-20T06:04:51.667Z,90.52
2024-02-20T06:05:51.728Z,90.72
2024-02-20T06:06:51.637Z,90.83
2024-02-20T06:07:51.641Z,90.62
2024-02-20T06:08:51.587Z,90.62
2024-02-20T06:09:51.585Z,91.24
2024-02-20T06:10:51.657Z,91.28
2024-02-20T06:11:51.621Z,91.28
2024-02-20T06:12:51.522Z,91.38
2024-02-20T06:13:51.534Z,91.49
2024-02-20T06:14:51.519Z,91.49
2024-02-20T06:15:51.531Z,91.38
2024-02-20T06:16:51.523Z,91.38
2024-02-20T06:17:51.721Z,91.28
2024-02-20T06:18:51.552Z,91.17
2024-02-20T06:19:51.527Z,90.97
2024-02-20T06:20:51.444Z,91.17
2024-02-20T06:21:51.462Z,91.32
2024-02-20T06:22:51.461Z,91.32
2024-02-20T06:23:51.470Z,91.32
2024-02-20T06:24:51.401Z,91.42
2024-02-20T06:25:51.422Z,91.53
2024-02-20T06:26:51.390Z,91.63
2024-02-20T06:27:51.442Z,92.15
2024-02-20T06:28:51.504Z,92.25
2024-02-20T06:29:51.402Z,92.61
2024-02-20T06:30:51.365Z,92.91
2024-02-20T06:31:51.400Z,92.91
2024-02-20T06:32:51.413Z,93.12
2024-02-20T06:33:51.473Z,93.12
2024-02-20T06:34:51.343Z,93.12
2024-02-20T06:35:51.302Z,93.12
2024-02-20T06:36:51.280Z,93.43
2024-02-20T06:37:51.280Z,93.43
2024-02-20T06:38:51.250Z,93.74
2024-02-20T06:39:54.282Z,93.85
2024-02-20T06:40:51.288Z,93.85
2024-02-20T06:41:51.304Z,93.64
2024-02-20T06:42:51.256Z,93.43
2024-02-20T06:43:51.332Z,93.64
2024-02-20T06:44:51.281Z,93.64
2024-02-20T06:45:51.213Z,93.23
2024-02-20T06:46:51.228Z,93.02
2024-02-20T06:47:51.261Z,92.61
2024-02-20T06:48:51.186Z,92.40
2024-02-20T06:49:51.175Z,92.05
2024-02-20T06:50:51.168Z,91.63
2024-02-20T06:51:51.136Z,91.22
2024-02-20T06:52:51.126Z,91.07
2024-02-20T06:53:51.137Z,90.77
2024-02-20T06:54:51.086Z,90.35
2024-02-20T06:55:51.162Z,90.00
2024-02-20T06:56:51.114Z,89.69
2024-02-20T06:57:51.077Z,89.69
2024-02-20T06:58:51.059Z,89.59
2024-02-20T06:59:51.048Z,89.38
2024-02-20T07:00:51.078Z,89.28
2024-02-20T07:01:51.165Z,89.03
2024-02-20T07:02:51.005Z,89.03
2024-02-20T07:03:51.024Z,89.03
2024-02-20T07:04:51.110Z,89.23
2024-02-20T07:05:51.217Z,89.23
2024-02-20T07:06:51.014Z,89.03
2024-02-20T07:07:51.070Z,88.92
2024-02-20T07:08:50.991Z,88.92
2024-02-20T07:09:50.919Z,88.92
2024-02-20T07:10:51.171Z,88.82
2024-02-20T07:11:50.940Z,88.82
2024-02-20T07:12:50.923Z,89.03
2024-02-20T07:13:50.948Z,88.92
2024-02-20T07:14:50.896Z,88.78
2024-02-20T07:15:50.867Z,88.89
2024-02-20T07:16:50.869Z,88.89
2024-02-20T07:17:50.918Z,88.98
2024-02-20T07:18:50.908Z,88.98
2024-02-20T07:19:50.962Z,88.98
2024-02-20T07:20:50.824Z,89.19
2024-02-20T07:21:50.802Z,89.19
2024-02-20T07:22:52.919Z,88.98
2024-02-20T07:23:50.799Z,88.74
2024-02-20T07:24:50.804Z,88.74
2024-02-20T07:25:50.788Z,89.05
2024-02-20T07:26:50.806Z,89.36
2024-02-20T07:27:50.768Z,89.25
2024-02-20T07:28:50.890Z,88.18
2024-02-20T07:29:50.746Z,88.08
2024-02-20T07:30:50.753Z,87.35
2024-02-20T07:31:50.762Z,87.05
2024-02-20T07:32:50.843Z,87.21
2024-02-20T07:33:57.434Z,86.18
2024-02-20T07:34:50.822Z,85.77
2024-02-20T07:35:50.782Z,85.36
2024-02-20T07:36:50.690Z,86.04
2024-02-20T07:37:50.702Z,86.45
2024-02-20T07:38:50.640Z,87.24
2024-02-20T07:39:50.610Z,86.10
2024-02-20T07:40:50.763Z,85.65
2024-02-20T07:41:50.590Z,85.75
2024-02-20T07:42:50.610Z,84.69
2024-02-20T07:43:50.604Z,83.76
2024-02-20T07:44:50.578Z,83.86
2024-02-20T07:45:50.555Z,82.21
2024-02-20T07:46:50.582Z,82.39
2024-02-20T07:47:50.666Z,81.60
2024-02-20T07:48:50.562Z,82.01
2024-02-20T07:49:50.563Z,82.53
2024-02-20T07:50:50.597Z,82.39
2024-02-20T07:51:50.492Z,82.28
2024-02-20T07:52:50.553Z,82.55
2024-02-20T07:53:50.497Z,81.93
2024-02-20T07:54:50.490Z,81.18
2024-02-20T07:55:50.486Z,81.28
2024-02-20T07:56:50.443Z,80.35
2024-02-20T07:57:50.429Z,79.29
2024-02-20T07:58:50.426Z,79.56
2024-02-20T07:59:50.389Z,78.12
2024-02-20T08:00:50.452Z,78.85
2024-02-20T08:01:50.514Z,78.57
2024-02-20T08:02:50.389Z,78.92
2024-02-20T08:03:50.391Z,80.35
2024-02-20T08:04:50.584Z,80.25
2024-02-20T08:05:50.391Z,79.94
2024-02-20T08:06:50.476Z,80.35
2024-02-20T08:07:50.312Z,80.01
2024-02-20T08:08:50.350Z,79.80
2024-02-20T08:09:50.306Z,79.25
2024-02-20T08:10:50.665Z,78.39
2024-02-20T08:11:50.452Z,77.98
2024-02-20T08:12:50.350Z,77.98
2024-02-20T08:13:50.421Z,78.91
2024-02-20T08:14:50.263Z,78.70
2024-02-20T08:15:50.209Z,78.39
2024-02-20T08:16:50.273Z,77.98
2024-02-20T08:17:50.209Z,78.85
2024-02-20T08:18:50.262Z,79.60
2024-02-20T08:19:50.223Z,80.35
2024-02-20T08:20:50.171Z,80.97
2024-02-20T08:21:50.158Z,81.11
2024-02-20T08:22:50.284Z,81.62
2024-02-20T08:23:50.162Z,81.83
2024-02-20T08:24:50.150Z,81.42
2024-02-20T08:25:50.121Z,81.73
2024-02-20T08:26:50.106Z,82.14
2024-02-20T08:27:50.187Z,82.48
2024-02-20T08:28:50.169Z,82.86
2024-02-20T08:29:50.083Z,82.65
2024-02-20T08:30:50.073Z,82.79
2024-02-20T08:31:50.118Z,82.59
2024-02-20T08:32:50.069Z,83.00
2024-02-20T08:33:50.082Z,83.11
2024-02-20T08:34:50.117Z,83.11
2024-02-20T08:35:50.036Z,83.11
2024-02-20T08:36:50.025Z,83.27
2024-02-20T08:37:49.989Z,82.76
2024-02-20T08:38:49.992Z,82.65
2024-02-20T08:39:52.501Z,82.86
2024-02-20T08:40:50.038Z,83.17
2024-02-20T08:41:49.967Z,83.27
2024-02-20T08:42:49.938Z,82.86
2024-02-20T08:43:50.016Z,82.65
2024-02-20T08:44:49.933Z,82.20
2024-02-20T08:45:49.907Z,82.00
2024-02-20T08:46:49.934Z,82.17
2024-02-20T08:47:49.893Z,81.10
2024-02-20T08:48:49.956Z,80.65
2024-02-20T08:49:49.898Z,79.90
2024-02-20T08:50:49.878Z,78.36
2024-02-20T08:51:49.844Z,79.18
2024-02-20T08:52:49.908Z,78.87
2024-02-20T08:53:49.803Z,78.36
2024-02-20T08:54:49.818Z,78.77
2024-02-20T08:55:49.862Z,79.11
2024-02-20T08:56:49.791Z,79.63
2024-02-20T08:57:49.773Z,80.07
2024-02-20T08:58:49.798Z,80.38
2024-02-20T08:59:49.734Z,79.56
2024-02-20T09:00:49.788Z,78.88
2024-02-20T09:01:49.814Z,79.80
2024-02-20T09:02:49.721Z,79.91
2024-02-20T09:03:49.730Z,79.49
2024-02-20T09:04:49.733Z,80.21
2024-02-20T09:05:49.805Z,80.63
2024-02-20T09:06:49.753Z,80.32
2024-02-20T09:07:49.720Z,79.91
2024-02-20T09:08:49.674Z,80.63
2024-02-20T09:09:49.647Z,80.42
2024-02-20T09:10:49.789Z,79.80
2024-02-20T09:11:49.637Z,79.19
2024-02-20T09:12:49.644Z,79.60
2024-02-20T09:13:49.628Z,79.39
2024-02-20T09:14:49.592Z,78.98
2024-02-20T09:15:49.592Z,79.08
2024-02-20T09:16:49.664Z,79.39
2024-02-20T09:17:49.590Z,78.98
2024-02-20T09:18:49.541Z,79.15
2024-02-20T09:19:49.584Z,79.46
2024-02-20T09:20:49.685Z,79.56
2024-02-20T09:21:49.523Z,79.42
2024-02-20T09:22:49.560Z,79.42
2024-02-20T09:23:49.474Z,78.70
2024-02-20T09:24:49.481Z,78.50
2024-02-20T09:25:49.523Z,79.11
2024-02-20T09:26:49.499Z,78.60
2024-02-20T09:27:49.436Z,78.91
2024-02-20T09:28:49.527Z,79.01
2024-02-20T09:29:49.428Z,79.22
2024-02-20T09:30:49.428Z,78.70
2024-02-20T09:31:50.828Z,79.22
2024-02-20T09:32:49.453Z,79.01
2024-02-20T09:33:49.602Z,79.01
2024-02-20T09:34:49.444Z,78.81
2024-02-20T09:35:49.355Z,79.32
2024-02-20T09:36:49.359Z,78.46
2024-02-20T09:37:49.538Z,78.16
2024-02-20T09:38:49.371Z,78.46
2024-02-20T09:39:49.311Z,79.18
2024-02-20T09:40:49.486Z,78.97
2024-02-20T09:41:49.274Z,78.25
2024-02-20T09:42:49.294Z,78.46
2024-02-20T09:43:49.310Z,77.33
2024-02-20T09:44:49.299Z,77.95
2024-02-20T09:45:49.232Z,77.95
2024-02-20T09:46:49.290Z,77.84
2024-02-20T09:47:53.948Z,78.16
2024-02-20T09:48:49.323Z,78.56
2024-02-20T09:49:49.341Z,77.81
2024-02-20T09:50:49.230Z,76.78
2024-02-20T09:51:49.208Z,77.20
2024-02-20T09:52:49.282Z,77.09
2024-02-20T09:53:49.206Z,77.20
2024-02-20T09:54:49.161Z,76.17
2024-02-20T09:55:49.257Z,76.07
2024-02-20T09:56:49.141Z,76.99
2024-02-20T09:57:49.135Z,77.06
2024-02-20T09:58:49.168Z,77.12
2024-02-20T09:59:49.085Z,74.66
2024-02-20T10:00:49.117Z,74.97
2024-02-20T10:01:49.136Z,75.14
2024-02-20T10:02:49.090Z,73.61
2024-02-20T10:03:49.120Z,73.81
2024-02-20T10:04:49.360Z,73.30
2024-02-20T10:05:49.133Z,73.40
2024-02-20T10:06:49.038Z,73.40
2024-02-20T10:07:49.115Z,73.68
2024-02-20T10:08:49.069Z,73.64
2024-02-20T10:09:48.996Z,73.13
2024-02-20T10:10:49.138Z,72.31
2024-02-20T10:11:49.001Z,71.70
2024-02-20T10:12:49.005Z,72.92
2024-02-20T10:13:49.047Z,72.48
2024-02-20T10:14:48.965Z,72.38
2024-02-20T10:15:48.900Z,71.73
2024-02-20T10:16:48.980Z,70.92
2024-02-20T10:17:48.931Z,71.19
2024-02-20T10:18:48.949Z,69.79
2024-02-20T10:19:48.969Z,70.30
2024-02-20T10:20:48.974Z,70.75
2024-02-20T10:21:48.847Z,71.46
2024-02-20T10:22:49.004Z,72.07
2024-02-20T10:23:48.824Z,72.07
2024-02-20T10:24:48.874Z,71.42
2024-02-20T10:25:48.953Z,71.15
2024-02-20T10:26:49.009Z,70.84
2024-02-20T10:27:48.788Z,71.29
2024-02-20T10:28:48.906Z,71.22
2024-02-20T10:29:48.771Z,71.62
2024-02-20T10:30:48.791Z,72.04
2024-02-20T10:31:48.824Z,72.14
2024-02-20T10:32:48.781Z,72.89
2024-02-20T10:33:50.054Z,72.48
2024-02-20T10:34:48.878Z,72.48
2024-02-20T10:35:48.785Z,72.78
2024-02-20T10:36:48.715Z,73.23
2024-02-20T10:37:48.753Z,73.64
2024-02-20T10:38:50.158Z,73.71
2024-02-20T10:39:48.683Z,73.50
2024-02-20T10:40:48.728Z,72.78
2024-02-20T10:41:48.642Z,72.48
2024-02-20T10:42:48.636Z,72.38
2024-02-20T10:43:48.669Z,72.78
2024-02-20T10:44:48.607Z,73.30
2024-02-20T10:45:48.575Z,73.30
2024-02-20T10:46:48.652Z,72.96
2024-02-20T10:47:48.565Z,71.90
2024-02-20T10:48:48.593Z,71.49
2024-02-20T10:49:48.576Z,71.39
2024-02-20T10:50:48.559Z,71.59
2024-02-20T10:51:48.528Z,70.75
2024-02-20T10:52:48.540Z,70.75
2024-02-20T10:53:48.490Z,70.95
2024-02-20T10:54:51.911Z,70.95
2024-02-20T10:55:48.577Z,70.81
2024-02-20T10:56:48.463Z,70.23
2024-02-20T10:57:48.461Z,71.15
2024-02-20T10:58:48.479Z,71.05
2024-02-20T10:59:48.424Z,71.29
2024-02-20T11:00:48.428Z,72.52
2024-02-20T11:01:48.552Z,71.94
2024-02-20T11:02:48.411Z,72.45
2024-02-20T11:03:58.948Z,72.14
2024-02-20T11:04:48.407Z,72.78
2024-02-20T11:05:48.415Z,73.71
2024-02-20T11:06:48.453Z,73.30
2024-02-20T11:07:48.382Z,72.89
2024-02-20T11:08:48.400Z,72.69
2024-02-20T11:09:48.311Z,72.72
2024-02-20T11:10:48.507Z,73.33
2024-02-20T11:11:48.378Z,73.64
2024-02-20T11:12:48.306Z,73.44
2024-02-20T11:13:48.355Z,73.85
2024-02-20T11:14:48.273Z,74.26
2024-02-20T11:15:48.255Z,74.63
2024-02-20T11:16:51.487Z,73.91
2024-02-20T11:17:48.277Z,73.50
2024-02-20T11:18:48.313Z,74.73
2024-02-20T11:19:48.385Z,74.11
2024-02-20T11:20:48.248Z,73.71
2024-02-20T11:21:48.185Z,73.50
2024-02-20T11:22:48.222Z,73.95
2024-02-20T11:23:48.178Z,74.36
2024-02-20T11:24:48.131Z,74.77
2024-02-20T11:25:48.285Z,74.56
2024-02-20T11:26:48.143Z,74.15
2024-02-20T11:27:48.154Z,74.05
2024-02-20T11:28:48.223Z,74.36
2024-02-20T11:29:48.133Z,74.36
2024-02-20T11:30:48.322Z,74.87
2024-02-20T11:31:48.197Z,75.18
2024-02-20T11:32:48.156Z,74.84
2024-02-20T11:33:48.102Z,74.63
2024-02-20T11:34:48.072Z,74.53
2024-02-20T11:35:48.798Z,74.94
2024-02-20T11:36:48.016Z,74.63
2024-02-20T11:37:54.233Z,74.43
2024-02-20T11:38:48.037Z,75.04
2024-02-20T11:39:48.000Z,75.24
2024-02-20T11:40:48.038Z,74.94
2024-02-20T11:41:48.039Z,74.73
2024-02-20T11:42:47.964Z,74.43
2024-02-20T11:43:48.036Z,74.53
2024-02-20T11:44:48.114Z,74.11
2024-02-20T11:45:47.944Z,74.29
2024-02-20T11:46:48.001Z,73.78
2024-02-20T11:47:48.020Z,73.57
2024-02-20T11:48:47.923Z,73.98
2024-02-20T11:49:48.006Z,73.36
2024-02-20T11:50:47.882Z,73.68
2024-02-20T11:51:47.910Z,73.68
2024-02-20T11:52:50.953Z,73.61
2024-02-20T11:53:47.888Z,73.61
2024-02-20T11:54:47.889Z,74.02
2024-02-20T11:55:47.979Z,74.32
2024-02-20T11:56:47.821Z,73.50
2024-02-20T11:57:47.796Z,74.32
2024-02-20T11:58:47.812Z,73.71
2024-02-20T11:59:47.800Z,74.11
2024-02-20T12:00:47.797Z,73.91
2024-02-20T12:01:47.828Z,73.91
2024-02-20T12:02:47.761Z,74.43
2024-02-20T12:03:47.747Z,73.61
2024-02-20T12:04:51.517Z,75.14
2024-02-20T12:05:47.901Z,74.49
2024-02-20T12:06:47.721Z,72.65
2024-02-20T12:07:47.758Z,72.99
2024-02-20T12:08:47.689Z,72.69
2024-02-20T12:09:47.692Z,73.30
2024-02-20T12:10:47.805Z,73.61
2024-02-20T12:11:47.686Z,73.61
2024-02-20T12:12:47.699Z,73.61
2024-02-20T12:13:48.043Z,73.91
2024-02-20T12:14:47.659Z,73.88
2024-02-20T12:15:47.621Z,73.20
2024-02-20T12:16:50.926Z,73.16
2024-02-20T12:17:47.729Z,73.47
2024-02-20T12:18:47.622Z,72.86
2024-02-20T12:19:47.717Z,72.04
2024-02-20T12:20:47.637Z,72.24
2024-02-20T12:21:47.556Z,72.55
2024-02-20T12:22:50.645Z,73.06
2024-02-20T12:23:47.533Z,72.21
2024-02-20T12:24:47.519Z,72.21
2024-02-20T12:25:47.663Z,73.44
2024-02-20T12:26:47.486Z,72.92
2024-02-20T12:27:47.481Z,72.41
2024-02-20T12:28:47.709Z,72.21
2024-02-20T12:29:47.487Z,72.41
2024-02-20T12:30:47.433Z,72.31
2024-02-20T12:31:47.469Z,72.41
2024-02-20T12:32:47.503Z,72.41
2024-02-20T12:33:47.618Z,72.00
2024-02-20T12:34:52.368Z,72.07
2024-02-20T12:35:47.481Z,70.98
2024-02-20T12:36:47.365Z,71.39
2024-02-20T12:37:47.386Z,72.00
2024-02-20T12:38:47.342Z,71.94
2024-02-20T12:39:47.401Z,72.24
2024-02-20T12:40:47.458Z,71.42
2024-02-20T12:41:47.374Z,71.73
2024-02-20T12:42:47.314Z,71.53
2024-02-20T12:43:47.434Z,71.42
2024-02-20T12:44:47.274Z,71.19
2024-02-20T12:45:47.290Z,71.12
2024-02-20T12:46:47.334Z,71.62
2024-02-20T12:47:47.345Z,71.32
2024-02-20T12:48:47.300Z,71.53
2024-02-20T12:49:47.273Z,71.42
2024-02-20T12:50:47.247Z,72.04
2024-02-20T12:51:47.276Z,72.45
2024-02-20T12:52:47.216Z,71.53